Time;durP1;ratioP1;P1;durP2;ratioP2;P2;SDS_P1;SDS_P2;PMS_P1;PMS_P2;Temp;Humidity;BMP_temperature;BMP_pressure;BME280_temperature;BME280_humidity;BME280_pressure;Samples;Min_cycle;Max_cycle;Signal;HPM_P1;HPM_P2
2021/04/06 00:01:36;;;;;;;2.43;1.80;;;10.60;51.60;;;;;;5076655;28;20564;-58
2021/04/06 00:04:05;;;;;;;2.87;1.83;;;10.60;51.60;;;;;;5076213;28;20472;-58
2021/04/06 00:06:32;;;;;;;3.37;1.90;;;10.60;51.70;;;;;;5076454;28;20433;-58
2021/04/06 00:09:00;;;;;;;1.90;1.63;;;10.50;51.70;;;;;;5076762;28;20525;-58
2021/04/06 00:11:27;;;;;;;4.00;1.97;;;10.50;51.80;;;;;;5076592;28;20429;-58
2021/04/06 00:13:54;;;;;;;1.73;1.63;;;10.50;51.80;;;;;;5076437;28;20466;-59
2021/04/06 00:16:20;;;;;;;1.43;1.30;;;10.50;51.80;;;;;;5076217;28;20473;-58
2021/04/06 00:18:47;;;;;;;3.13;1.73;;;10.50;51.80;;;;;;5074239;28;20519;-58
2021/04/06 00:21:14;;;;;;;2.70;2.37;;;10.50;51.90;;;;;;5075258;28;20472;-58
2021/04/06 00:23:41;;;;;;;1.93;1.83;;;10.40;51.90;;;;;;5067891;28;20460;-59
2021/04/06 00:26:09;;;;;;;1.73;1.40;;;10.40;52.00;;;;;;5076057;28;20430;-58
2021/04/06 00:28:36;;;;;;;1.57;1.47;;;10.40;52.00;;;;;;5076389;28;20469;-58
2021/04/06 00:31:04;;;;;;;1.40;1.30;;;10.30;52.00;;;;;;5076193;28;20461;-58
2021/04/06 00:33:31;;;;;;;2.60;1.70;;;10.30;52.10;;;;;;5075711;28;20552;-58
2021/04/06 00:36:00;;;;;;;1.50;1.40;;;10.30;52.20;;;;;;5075655;28;20444;-58
2021/04/06 00:38:29;;;;;;;5.10;2.00;;;10.30;52.30;;;;;;5076132;28;20465;-58
2021/04/06 00:40:58;;;;;;;2.50;1.53;;;10.30;52.30;;;;;;5075899;28;20509;-59
2021/04/06 00:43:32;;;;;;;1.70;1.60;;;10.30;52.40;;;;;;5075924;28;20529;-58
2021/04/06 00:46:00;;;;;;;9.43;2.00;;;10.30;52.90;;;;;;5075736;28;20471;-58
2021/04/06 00:48:27;;;;;;;1.73;1.63;;;10.30;52.30;;;;;;5075765;28;20476;-59
2021/04/06 00:51:13;;;;;;;1.73;1.30;;;10.30;52.40;;;;;;5076348;28;20484;-58
2021/04/06 00:53:59;;;;;;;3.27;1.70;;;10.30;52.40;;;;;;5075607;28;20488;-58
2021/04/06 00:56:27;;;;;;;2.07;1.87;;;10.20;52.30;;;;;;5075864;28;20483;-58
2021/04/06 00:58:55;;;;;;;2.00;1.40;;;10.20;52.30;;;;;;5075987;28;20513;-58
2021/04/06 01:01:28;;;;;;;1.63;1.53;;;10.20;52.40;;;;;;5075428;28;20576;-58
2021/04/06 01:03:56;;;;;;;1.77;1.43;;;10.20;52.40;;;;;;5075481;28;20438;-59
2021/04/06 01:06:23;;;;;;;1.60;1.50;;;10.20;52.50;;;;;;5075336;28;20436;-59
2021/04/06 01:08:51;;;;;;;1.40;1.30;;;10.20;52.50;;;;;;5075493;28;20461;-58
2021/04/06 01:11:18;;;;;;;1.27;1.20;;;10.20;52.50;;;;;;5075813;28;20495;-58
2021/04/06 01:13:45;;;;;;;1.57;1.47;;;10.20;52.40;;;;;;5075605;28;20433;-58
2021/04/06 01:16:12;;;;;;;3.03;1.40;;;10.10;52.50;;;;;;5074646;28;20473;-59
2021/04/06 01:18:39;;;;;;;2.33;1.40;;;10.10;52.60;;;;;;5075842;28;20520;-58
2021/04/06 01:21:07;;;;;;;2.07;1.40;;;10.10;52.60;;;;;;5074585;28;20535;-58
2021/04/06 01:23:35;;;;;;;1.50;1.40;;;10.10;52.60;;;;;;5074785;28;20466;-58
2021/04/06 01:26:03;;;;;;;1.43;1.33;;;10.00;52.80;;;;;;5075243;28;20467;-59
2021/04/06 01:28:30;;;;;;;1.33;1.23;;;10.00;52.70;;;;;;5074971;28;20441;-58
2021/04/06 01:30:58;;;;;;;2.37;1.50;;;10.00;52.70;;;;;;5075238;28;20461;-58
2021/04/06 01:33:26;;;;;;;1.57;1.40;;;10.00;52.50;;;;;;5074282;28;20520;-58
2021/04/06 01:35:54;;;;;;;1.53;1.43;;;10.00;52.50;;;;;;5074917;28;20537;-58
2021/04/06 01:38:22;;;;;;;1.50;1.40;;;10.00;52.70;;;;;;5075037;28;20505;-58
2021/04/06 01:40:50;;;;;;;1.37;1.27;;;10.00;52.60;;;;;;5074452;28;20469;-58
2021/04/06 01:43:19;;;;;;;1.43;1.33;;;10.00;52.70;;;;;;5074421;28;20491;-59
2021/04/06 01:45:48;;;;;;;1.50;1.40;;;9.90;53.70;;;;;;5074468;28;20469;-59
2021/04/06 01:48:15;;;;;;;1.47;1.37;;;9.90;53.70;;;;;;5074358;28;20529;-59
2021/04/06 01:50:42;;;;;;;1.93;1.40;;;9.90;53.60;;;;;;5074843;28;20519;-59
2021/04/06 01:53:09;;;;;;;1.43;1.20;;;9.90;53.80;;;;;;5074761;28;20446;-59
2021/04/06 01:55:38;;;;;;;2.30;1.33;;;10.00;52.90;;;;;;5074251;28;20506;-58
2021/04/06 01:58:06;;;;;;;1.23;1.13;;;10.00;52.80;;;;;;5073661;28;20588;-58
2021/04/06 02:00:41;;;;;;;1.50;1.40;;;10.00;52.70;;;;;;5074397;28;20485;-58
2021/04/06 02:03:11;;;;;;;2.70;1.47;;;10.00;52.70;;;;;;5074598;28;20528;-58
2021/04/06 02:05:38;;;;;;;1.73;1.60;;;10.00;52.70;;;;;;5074256;28;20568;-59
2021/04/06 02:08:09;;;;;;;1.40;1.30;;;10.00;52.70;;;;;;5074400;28;20473;-58
2021/04/06 02:10:36;;;;;;;1.20;1.10;;;10.00;52.80;;;;;;5074876;28;20496;-59
2021/04/06 02:13:09;;;;;;;2.07;1.20;;;10.00;52.70;;;;;;5074366;28;20422;-59
2021/04/06 02:15:36;;;;;;;1.77;1.30;;;10.10;52.70;;;;;;5074125;28;20449;-59
2021/04/06 02:18:03;;;;;;;1.57;1.20;;;10.10;52.60;;;;;;5074007;28;20441;-59
2021/04/06 02:20:30;;;;;;;1.67;1.50;;;10.00;52.60;;;;;;5073745;28;20452;-61
2021/04/06 02:22:58;;;;;;;1.57;1.47;;;10.00;52.70;;;;;;5074327;28;20536;-61
2021/04/06 02:25:25;;;;;;;1.33;1.23;;;10.00;52.80;;;;;;5073345;28;20521;-61
2021/04/06 02:27:52;;;;;;;1.57;1.47;;;10.10;52.80;;;;;;5074163;28;20437;-61
2021/04/06 02:30:29;;;;;;;1.50;1.20;;;10.10;52.90;;;;;;5073957;28;20465;-61
2021/04/06 02:32:57;;;;;;;1.67;1.40;;;10.10;52.80;;;;;;5074044;28;20506;-62
2021/04/06 02:35:24;;;;;;;1.30;1.20;;;10.10;52.80;;;;;;5073807;28;20465;-61
2021/04/06 02:37:50;;;;;;;1.47;1.10;;;10.10;52.90;;;;;;5073978;28;20448;-62
2021/04/06 02:40:19;;;;;;;2.20;1.27;;;10.10;53.00;;;;;;5074305;28;20437;-61
2021/04/06 02:42:46;;;;;;;1.70;1.60;;;10.10;53.00;;;;;;5074301;28;20576;-61
2021/04/06 02:45:15;;;;;;;2.57;1.57;;;10.10;53.00;;;;;;5073433;28;20448;-61
2021/04/06 02:47:44;;;;;;;2.20;1.33;;;10.10;53.00;;;;;;5073936;28;20473;-61
2021/04/06 02:50:12;;;;;;;1.40;1.30;;;10.10;53.00;;;;;;5074062;28;20445;-61
2021/04/06 02:52:39;;;;;;;1.23;1.10;;;10.10;53.00;;;;;;5074185;28;20468;-61
2021/04/06 02:55:08;;;;;;;1.60;1.50;;;10.10;53.00;;;;;;5073760;28;20445;-61
2021/04/06 02:57:39;;;;;;;1.07;1.00;;;10.10;53.00;;;;;;5073675;28;20437;-61
2021/04/06 03:00:07;;;;;;;1.30;1.20;;;10.10;53.00;;;;;;5073830;28;20513;-61
2021/04/06 03:02:38;;;;;;;1.53;1.43;;;10.10;53.10;;;;;;5073489;28;20475;-61
2021/04/06 03:05:07;;;;;;;1.47;1.30;;;10.10;53.00;;;;;;5073311;28;20421;-61
2021/04/06 03:07:44;;;;;;;2.50;1.40;;;10.10;53.00;;;;;;5073693;28;20432;-61
2021/04/06 03:10:17;;;;;;;4.00;1.10;;;10.10;53.00;;;;;;5073760;28;20444;-61
2021/04/06 03:12:44;;;;;;;3.70;1.30;;;10.10;53.00;;;;;;5073727;28;20519;-61
2021/04/06 03:15:13;;;;;;;1.80;1.53;;;10.10;53.10;;;;;;5073512;28;20495;-61
2021/04/06 03:17:49;;;;;;;1.47;1.13;;;10.10;53.10;;;;;;5073647;28;20544;-61
2021/04/06 03:20:18;;;;;;;1.30;1.00;;;10.10;53.20;;;;;;5073911;28;20425;-61
2021/04/06 03:22:45;;;;;;;2.17;1.13;;;10.10;53.10;;;;;;5072259;28;20535;-61
2021/04/06 03:25:13;;;;;;;4.97;1.60;;;10.10;53.20;;;;;;5065283;28;20491;-61
2021/04/06 03:27:42;;;;;;;1.30;1.20;;;10.10;53.30;;;;;;5073450;28;20509;-61
2021/04/06 03:30:10;;;;;;;1.53;1.23;;;10.10;53.30;;;;;;5062051;28;20529;-61
2021/04/06 03:32:37;;;;;;;2.47;1.47;;;10.00;53.20;;;;;;5073559;28;20495;-61
2021/04/06 03:35:05;;;;;;;3.77;1.40;;;10.00;53.20;;;;;;5073365;28;20472;-61
2021/04/06 03:37:35;;;;;;;2.73;1.30;;;10.00;53.20;;;;;;5073276;28;20484;-61
2021/04/06 03:40:02;;;;;;;2.30;1.23;;;10.00;53.40;;;;;;5073553;28;20469;-59
2021/04/06 03:42:28;;;;;;;1.10;1.10;;;10.00;53.40;;;;;;5073134;28;20501;-59
2021/04/06 03:45:04;;;;;;;1.57;1.33;;;10.00;53.40;;;;;;5073148;28;20533;-58
2021/04/06 03:47:52;;;;;;;1.33;1.10;;;10.00;53.50;;;;;;5073275;28;20483;-59
2021/04/06 03:50:36;;;;;;;2.17;1.17;;;10.00;53.40;;;;;;5073077;28;20524;-58
2021/04/06 03:53:04;;;;;;;2.50;1.57;;;10.00;53.40;;;;;;5073128;28;20516;-58
2021/04/06 03:55:32;;;;;;;1.60;1.20;;;10.00;53.50;;;;;;5073145;28;20476;-59
2021/04/06 03:58:07;;;;;;;1.60;1.20;;;9.90;54.40;;;;;;5076157;28;20442;-58
2021/04/06 04:00:34;;;;;;;1.33;1.13;;;9.90;54.50;;;;;;5076560;28;20434;-58
2021/04/06 04:03:01;;;;;;;1.53;1.00;;;9.90;54.50;;;;;;5076603;28;20530;-58
2021/04/06 04:05:28;;;;;;;2.17;1.40;;;9.90;54.50;;;;;;5076242;28;20430;-58
2021/04/06 04:07:55;;;;;;;2.30;1.20;;;9.90;54.60;;;;;;5076661;28;20545;-58
2021/04/06 04:10:23;;;;;;;1.30;1.20;;;9.90;54.70;;;;;;5076331;28;20484;-58
2021/04/06 04:12:50;;;;;;;2.30;1.47;;;9.90;54.70;;;;;;5075964;28;20513;-58
2021/04/06 04:15:17;;;;;;;2.30;1.23;;;9.90;54.60;;;;;;5075826;28;20434;-58
2021/04/06 04:17:46;;;;;;;1.43;1.33;;;9.90;54.70;;;;;;5073577;28;20452;-59
2021/04/06 04:20:14;;;;;;;1.20;1.10;;;9.80;54.70;;;;;;5073706;28;20505;-58
2021/04/06 04:22:41;;;;;;;1.10;0.90;;;9.80;54.80;;;;;;5056239;28;20474;-58
2021/04/06 04:25:08;;;;;;;1.53;1.30;;;9.90;54.90;;;;;;5056315;28;20533;-59
2021/04/06 04:27:36;;;;;;;3.00;1.20;;;10.10;54.10;;;;;;5056252;28;20439;-61
2021/04/06 04:30:03;;;;;;;1.50;0.87;;;10.10;53.90;;;;;;5056118;28;20481;-61
2021/04/06 04:32:36;;;;;;;1.77;1.20;;;10.00;54.10;;;;;;5055728;28;20496;-61
2021/04/06 04:35:04;;;;;;;1.53;1.10;;;9.90;55.30;;;;;;5070508;28;20512;-61
2021/04/06 04:37:30;;;;;;;2.37;1.20;;;9.80;55.50;;;;;;5063187;28;20426;-61
2021/04/06 04:39:57;;;;;;;1.40;1.17;;;9.80;55.60;;;;;;5075797;28;20437;-61
2021/04/06 04:42:31;;;;;;;3.00;1.50;;;9.80;55.70;;;;;;5073006;28;20466;-61
2021/04/06 04:44:59;;;;;;;1.43;0.97;;;9.70;55.60;;;;;;5075228;28;20521;-61
2021/04/06 04:47:25;;;;;;;3.17;1.30;;;9.70;55.70;;;;;;5066948;28;20465;-60
2021/04/06 04:49:52;;;;;;;1.67;1.07;;;9.70;55.80;;;;;;5057930;28;20449;-62
2021/04/06 04:52:19;;;;;;;5.87;1.40;;;9.60;55.70;;;;;;5075725;28;20468;-62
2021/04/06 04:54:46;;;;;;;1.67;1.00;;;9.60;55.80;;;;;;5074746;28;20465;-62
2021/04/06 04:57:13;;;;;;;2.63;1.30;;;9.60;55.80;;;;;;5074244;28;20512;-62
2021/04/06 04:59:40;;;;;;;2.03;1.00;;;9.60;55.80;;;;;;5074516;28;20430;-61
2021/04/06 05:02:07;;;;;;;4.30;1.27;;;9.60;56.00;;;;;;5074434;28;20545;-62
2021/04/06 05:04:34;;;;;;;3.10;1.60;;;9.60;55.90;;;;;;5063505;28;20469;-62
2021/04/06 05:07:01;;;;;;;1.93;1.10;;;9.60;56.00;;;;;;5066239;28;20481;-61
2021/04/06 05:09:28;;;;;;;2.20;1.27;;;9.60;56.00;;;;;;5072913;28;20426;-61
2021/04/06 05:11:55;;;;;;;1.90;1.00;;;9.60;56.00;;;;;;5073762;28;20489;-62
2021/04/06 05:14:22;;;;;;;1.90;1.10;;;9.60;56.00;;;;;;5073758;28;20513;-62
2021/04/06 05:16:49;;;;;;;1.93;1.10;;;9.70;56.00;;;;;;5064478;28;20433;-62
2021/04/06 05:19:17;;;;;;;1.60;1.10;;;9.70;55.90;;;;;;5062846;28;20503;-59
2021/04/06 05:21:44;;;;;;;2.67;1.30;;;9.80;55.70;;;;;;5071547;28;20466;-59
2021/04/06 05:24:11;;;;;;;2.63;1.10;;;9.90;55.60;;;;;;5073699;28;20475;-60
2021/04/06 05:26:38;;;;;;;3.80;1.77;;;9.90;55.60;;;;;;5073951;28;20537;-60
2021/04/06 05:29:05;;;;;;;2.63;1.20;;;9.90;55.70;;;;;;5074328;28;20445;-60
2021/04/06 05:31:32;;;;;;;2.00;1.23;;;9.90;55.80;;;;;;5074303;28;20445;-59
2021/04/06 05:33:59;;;;;;;3.40;1.20;;;9.80;55.70;;;;;;5073928;28;20534;-59
2021/04/06 05:36:26;;;;;;;1.70;1.60;;;9.90;55.90;;;;;;5073918;28;20551;-59
2021/04/06 05:38:54;;;;;;;4.73;1.00;;;9.80;55.90;;;;;;5073730;28;20438;-60
2021/04/06 05:41:21;;;;;;;2.20;1.10;;;9.80;56.00;;;;;;5060329;28;20546;-60
2021/04/06 05:43:48;;;;;;;4.20;1.37;;;9.80;56.10;;;;;;5064759;28;20430;-60
2021/04/06 05:46:15;;;;;;;2.30;1.40;;;9.90;56.10;;;;;;5063202;28;20553;-60
2021/04/06 05:48:42;;;;;;;3.00;1.60;;;9.80;56.10;;;;;;5063303;28;20541;-59
2021/04/06 05:51:09;;;;;;;2.40;1.33;;;9.80;56.10;;;;;;5071519;28;20528;-59
2021/04/06 05:53:36;;;;;;;4.00;1.53;;;9.90;56.20;;;;;;5074124;28;20516;-59
2021/04/06 05:56:04;;;;;;;2.30;1.20;;;9.80;56.10;;;;;;5074179;28;20425;-59
2021/04/06 05:58:31;;;;;;;2.40;1.10;;;9.90;56.20;;;;;;5074395;28;20529;-59
2021/04/06 06:00:59;;;;;;;1.50;1.27;;;9.90;56.20;;;;;;5074069;28;20457;-59
2021/04/06 06:03:26;;;;;;;5.30;1.30;;;9.90;56.10;;;;;;5073587;28;20517;-61
2021/04/06 06:05:53;;;;;;;4.20;1.30;;;9.90;56.10;;;;;;5073993;28;20442;-61
2021/04/06 06:08:20;;;;;;;4.37;1.70;;;9.90;56.10;;;;;;5073790;28;20461;-62
2021/04/06 06:10:47;;;;;;;3.07;1.30;;;9.90;56.10;;;;;;5073722;28;20418;-61
2021/04/06 06:13:16;;;;;;;4.30;1.37;;;10.00;55.10;;;;;;5074063;28;20499;-61
2021/04/06 06:15:43;;;;;;;4.10;1.20;;;10.00;55.10;;;;;;5073683;28;20433;-59
2021/04/06 06:18:10;;;;;;;3.53;1.37;;;10.00;55.00;;;;;;5073846;28;20540;-62
2021/04/06 06:20:37;;;;;;;2.87;1.23;;;10.10;55.00;;;;;;5072996;28;20437;-61
2021/04/06 06:23:17;;;;;;;10.73;1.37;;;10.20;55.00;;;;;;5073690;28;20497;-62
2021/04/06 06:26:12;;;;;;;3.70;1.70;;;10.40;54.60;;;;;;5073715;28;20446;-62
2021/04/06 06:28:39;;;;;;;2.30;1.30;;;10.40;54.50;;;;;;5073554;28;20461;-62
2021/04/06 06:31:06;;;;;;;2.43;1.50;;;10.30;54.70;;;;;;5073389;28;20448;-61
2021/04/06 06:33:35;;;;;;;3.47;1.30;;;10.30;54.90;;;;;;5073795;28;20472;-61
2021/04/06 06:36:03;;;;;;;3.70;1.87;;;10.30;54.90;;;;;;5073225;28;20525;-62
2021/04/06 06:38:34;;;;;;;2.13;1.60;;;10.20;55.10;;;;;;5054028;28;20529;-62
2021/04/06 06:41:13;;;;;;;2.90;1.47;;;10.20;55.30;;;;;;5073673;28;20437;-61
2021/04/06 06:43:41;;;;;;;4.67;1.60;;;10.20;55.30;;;;;;5073774;28;20456;-61
2021/04/06 06:46:19;;;;;;;6.47;2.07;;;10.20;55.30;;;;;;5073363;28;20437;-62
2021/04/06 06:48:53;;;;;;;2.17;1.10;;;10.20;55.30;;;;;;5073747;28;20449;-62
2021/04/06 06:51:20;;;;;;;3.20;1.50;;;10.30;55.30;;;;;;5073917;28;20456;-62
2021/04/06 06:53:47;;;;;;;2.50;1.57;;;10.40;55.20;;;;;;5073731;28;20540;-62
2021/04/06 06:56:14;;;;;;;6.83;1.30;;;10.50;55.00;;;;;;5073289;28;20438;-61
2021/04/06 06:58:42;;;;;;;2.73;1.20;;;10.60;54.90;;;;;;5074040;28;20437;-62
2021/04/06 07:01:21;;;;;;;3.27;1.50;;;10.70;54.80;;;;;;5071492;28;20476;-62
2021/04/06 07:04:01;;;;;;;9.07;2.13;;;10.90;54.60;;;;;;5071844;28;20442;-61
2021/04/06 07:06:28;;;;;;;2.90;1.63;;;11.00;54.40;;;;;;5071718;28;20509;-62
2021/04/06 07:08:55;;;;;;;2.33;1.70;;;11.00;54.40;;;;;;5073447;28;20466;-62
2021/04/06 07:11:23;;;;;;;2.40;1.40;;;11.10;54.40;;;;;;5065242;28;20512;-61
2021/04/06 07:13:50;;;;;;;2.27;1.33;;;11.10;54.40;;;;;;5065725;28;20434;-62
2021/04/06 07:16:18;;;;;;;3.60;1.73;;;11.20;54.50;;;;;;5061457;28;20487;-61
2021/04/06 07:18:45;;;;;;;1.97;1.40;;;11.20;54.50;;;;;;5053588;28;20478;-61
2021/04/06 07:21:12;;;;;;;2.07;1.40;;;11.10;54.50;;;;;;5053541;28;20442;-62
2021/04/06 07:23:44;;;;;;;3.43;1.73;;;11.20;54.70;;;;;;5053054;28;20470;-62
2021/04/06 07:26:13;;;;;;;2.50;1.33;;;11.20;54.60;;;;;;5053317;28;20438;-61
2021/04/06 07:28:41;;;;;;;2.77;1.47;;;11.30;54.60;;;;;;5053760;28;20537;-62
2021/04/06 07:31:10;;;;;;;2.73;1.60;;;11.30;54.70;;;;;;5053858;28;20473;-62
2021/04/06 07:33:37;;;;;;;4.30;1.60;;;11.50;54.60;;;;;;5057302;28;20576;-61
2021/04/06 07:36:05;;;;;;;6.63;1.93;;;11.60;54.30;;;;;;5057208;28;20470;-61
2021/04/06 07:38:33;;;;;;;3.07;1.50;;;11.70;54.40;;;;;;5057559;28;20493;-61
2021/04/06 07:41:01;;;;;;;3.07;1.40;;;11.90;53.90;;;;;;5057319;28;20453;-61
2021/04/06 07:43:28;;;;;;;1.90;1.50;;;11.90;53.90;;;;;;5057190;28;20546;-61
2021/04/06 07:45:56;;;;;;;3.20;1.50;;;11.70;54.20;;;;;;5056915;28;20504;-61
2021/04/06 07:48:48;;;;;;;6.30;1.77;;;11.70;54.40;;;;;;5057092;28;20465;-61
2021/04/06 07:51:23;;;;;;;2.27;1.30;;;11.70;54.30;;;;;;5056933;28;20449;-61
2021/04/06 07:54:01;;;;;;;2.07;1.57;;;11.90;54.20;;;;;;5056784;28;20437;-61
2021/04/06 07:56:50;;;;;;;4.07;2.00;;;12.00;54.00;;;;;;5056591;28;20438;-61
2021/04/06 07:59:41;;;;;;;1.70;1.57;;;12.10;53.80;;;;;;5056728;28;20529;-61
2021/04/06 08:02:28;;;;;;;1.90;1.50;;;12.30;53.80;;;;;;5056610;28;20509;-61
2021/04/06 08:05:07;;;;;;;2.13;1.40;;;12.50;53.60;;;;;;5056401;28;20439;-61
2021/04/06 08:07:35;;;;;;;2.50;1.70;;;12.80;53.20;;;;;;5056693;28;20511;-62
2021/04/06 08:10:38;;;;;;;3.23;1.60;;;12.60;53.20;;;;;;5056746;28;20435;-62
2021/04/06 08:13:05;;;;;;;2.83;1.43;;;12.60;53.50;;;;;;5055060;28;20434;-61
2021/04/06 08:15:32;;;;;;;3.57;1.60;;;12.60;53.50;;;;;;5056269;28;20470;-62
2021/04/06 08:18:01;;;;;;;4.10;1.93;;;12.60;53.60;;;;;;5056432;28;20435;-62
2021/04/06 08:20:41;;;;;;;6.00;2.30;;;12.80;53.60;;;;;;5056251;28;20496;-62
2021/04/06 08:23:10;;;;;;;4.27;1.90;;;12.80;53.40;;;;;;5055886;28;20486;-62
2021/04/06 08:25:50;;;;;;;2.43;1.90;;;12.90;53.20;;;;;;5055762;28;20558;-62
2021/04/06 08:28:34;;;;;;;4.50;2.10;;;12.90;53.30;;;;;;5056257;28;20426;-62
2021/04/06 08:31:21;;;;;;;3.20;1.83;;;13.20;53.10;;;;;;5056006;28;20435;-62
2021/04/06 08:33:49;;;;;;;2.90;1.70;;;13.50;52.80;;;;;;5055974;28;20442;-62
2021/04/06 08:36:24;;;;;;;2.57;1.67;;;13.90;52.30;;;;;;5055958;28;20472;-61
2021/04/06 08:38:50;;;;;;;2.47;1.90;;;14.40;51.60;;;;;;5056143;28;20464;-61
2021/04/06 08:41:48;;;;;;;2.33;1.57;;;14.70;51.00;;;;;;5055772;28;20442;-61
2021/04/06 08:44:14;;;;;;;1.90;1.80;;;14.40;51.40;;;;;;5033603;28;20506;-61
2021/04/06 08:46:45;;;;;;;2.40;1.80;;;14.10;52.00;;;;;;5050723;28;20478;-61
2021/04/06 08:49:14;;;;;;;4.17;2.00;;;13.80;52.60;;;;;;5055746;28;20439;-61
2021/04/06 08:51:42;;;;;;;3.53;1.67;;;13.60;53.10;;;;;;5055660;28;20438;-61
2021/04/06 08:54:10;;;;;;;3.80;2.17;;;13.40;53.60;;;;;;5055369;28;20473;-59
2021/04/06 08:56:38;;;;;;;3.87;1.90;;;13.30;53.70;;;;;;5055467;28;20438;-59
2021/04/06 08:59:12;;;;;;;2.07;1.87;;;13.30;53.70;;;;;;5055522;28;20470;-59
2021/04/06 09:01:39;;;;;;;3.50;2.30;;;13.20;53.80;;;;;;5055510;28;20437;-60
2021/04/06 09:04:11;;;;;;;2.50;1.83;;;13.10;53.80;;;;;;5055157;28;20478;-60
2021/04/06 09:06:39;;;;;;;2.90;1.90;;;13.20;53.90;;;;;;5055182;28;20442;-60
2021/04/06 09:09:06;;;;;;;5.17;2.10;;;13.50;53.50;;;;;;5055412;28;20503;-60
2021/04/06 09:11:32;;;;;;;2.70;2.13;;;14.00;52.90;;;;;;5050030;28;20486;-61
2021/04/06 09:13:59;;;;;;;4.80;2.30;;;14.40;52.50;;;;;;5055027;28;20502;-61
2021/04/06 09:16:27;;;;;;;3.20;2.13;;;14.40;51.90;;;;;;5055463;28;20513;-60
2021/04/06 09:18:54;;;;;;;4.63;2.50;;;14.60;51.70;;;;;;5055511;28;20484;-61
2021/04/06 09:21:22;;;;;;;2.67;2.40;;;14.90;51.40;;;;;;5055425;28;20453;-61
2021/04/06 09:23:52;;;;;;;2.70;2.37;;;15.30;51.00;;;;;;5054997;28;20536;-60
2021/04/06 09:26:19;;;;;;;2.70;1.97;;;15.50;50.70;;;;;;5055064;28;20435;-60
2021/04/06 09:28:45;;;;;;;3.00;1.87;;;15.70;50.30;;;;;;5055236;28;20445;-60
2021/04/06 09:31:13;;;;;;;4.00;2.40;;;16.00;50.00;;;;;;5055018;28;20442;-60
2021/04/06 09:33:40;;;;;;;4.10;2.10;;;16.20;49.80;;;;;;5055064;28;20525;-60
2021/04/06 09:36:12;;;;;;;3.00;1.70;;;16.30;49.60;;;;;;5054802;28;20509;-61
2021/04/06 09:38:43;;;;;;;2.43;2.00;;;16.20;49.80;;;;;;5054765;28;20476;-60
2021/04/06 09:41:11;;;;;;;3.23;2.00;;;16.10;50.10;;;;;;5054916;28;20479;-60
2021/04/06 09:43:38;;;;;;;3.43;2.43;;;16.10;50.30;;;;;;5054883;28;20570;-60
2021/04/06 09:46:06;;;;;;;4.43;2.20;;;16.30;50.20;;;;;;5054712;28;20466;-60
2021/04/06 09:48:33;;;;;;;3.00;1.83;;;16.50;49.80;;;;;;5054392;28;20514;-60
2021/04/06 09:51:03;;;;;;;2.00;1.80;;;16.90;49.50;;;;;;5054460;28;20454;-60
2021/04/06 09:53:30;;;;;;;2.23;1.63;;;17.10;49.10;;;;;;5054526;28;20461;-60
2021/04/06 09:55:57;;;;;;;2.43;1.97;;;17.30;49.00;;;;;;5053881;28;20443;-60
2021/04/06 09:58:25;;;;;;;2.47;1.77;;;17.60;48.80;;;;;;5054738;28;20449;-60
2021/04/06 10:00:52;;;;;;;4.47;1.63;;;17.80;48.60;;;;;;5054620;28;20516;-60
2021/04/06 10:03:24;;;;;;;4.53;2.20;;;17.90;48.40;;;;;;5054574;28;20581;-60
2021/04/06 10:06:01;;;;;;;2.27;2.07;;;18.10;48.40;;;;;;5054242;28;20474;-60
2021/04/06 10:08:29;;;;;;;3.93;2.20;;;18.30;48.20;;;;;;5054627;28;20466;-60
2021/04/06 10:10:56;;;;;;;3.27;2.03;;;18.50;48.10;;;;;;5054396;28;20401;-60
2021/04/06 10:13:23;;;;;;;1.73;1.60;;;18.70;48.00;;;;;;5054535;28;20448;-60
2021/04/06 10:16:02;;;;;;;1.83;1.60;;;18.90;47.80;;;;;;5054181;28;20529;-61
2021/04/06 10:18:36;;;;;;;3.10;1.97;;;19.00;47.80;;;;;;5054867;28;20472;-61
2021/04/06 10:21:04;;;;;;;2.00;1.57;;;19.30;47.40;;;;;;5060900;28;20462;-60
2021/04/06 10:23:33;;;;;;;2.60;1.53;;;19.40;47.30;;;;;;5074001;28;20543;-60
2021/04/06 10:26:01;;;;;;;3.50;2.20;;;19.70;47.00;;;;;;5073925;28;20433;-60
2021/04/06 10:28:28;;;;;;;1.90;1.77;;;20.20;46.60;;;;;;5074034;28;20477;-60
2021/04/06 10:30:58;;;;;;;2.30;1.80;;;20.40;46.00;;;;;;5074060;28;20437;-59
2021/04/06 10:33:27;;;;;;;1.83;1.60;;;20.00;46.40;;;;;;5074155;28;20537;-60
2021/04/06 10:35:55;;;;;;;2.53;1.67;;;19.40;47.40;;;;;;5074092;28;20461;-60
2021/04/06 10:38:23;;;;;;;1.83;1.50;;;18.80;48.20;;;;;;5074007;28;20542;-60
2021/04/06 10:40:59;;;;;;;3.33;1.80;;;18.30;48.80;;;;;;5073732;28;20538;-60
2021/04/06 10:43:26;;;;;;;2.50;1.63;;;17.90;49.30;;;;;;5073545;28;20565;-60
2021/04/06 10:46:00;;;;;;;2.47;1.43;;;17.70;49.60;;;;;;5073948;28;20481;-58
2021/04/06 10:48:27;;;;;;;3.23;1.83;;;17.50;50.00;;;;;;5073995;28;20503;-62
2021/04/06 10:50:56;;;;;;;1.83;1.70;;;17.30;50.50;;;;;;5074039;28;20472;-62
2021/04/06 10:53:24;;;;;;;2.43;2.00;;;17.50;50.30;;;;;;5073166;28;20454;-61
2021/04/06 10:55:56;;;;;;;5.17;1.80;;;17.80;49.70;;;;;;5073544;28;20480;-61
2021/04/06 10:58:25;;;;;;;2.43;2.00;;;18.30;49.10;;;;;;5073712;28;20452;-61
2021/04/06 11:00:56;;;;;;;1.77;1.67;;;18.80;48.10;;;;;;5073665;28;20461;-61
2021/04/06 11:03:24;;;;;;;3.93;1.60;;;19.40;47.20;;;;;;5073684;28;20553;-61
2021/04/06 11:05:51;;;;;;;5.10;1.83;;;19.60;47.00;;;;;;5075007;28;20434;-61
2021/04/06 11:08:24;;;;;;;3.00;1.80;;;19.60;47.00;;;;;;5078104;28;20507;-61
2021/04/06 11:10:52;;;;;;;6.00;2.10;;;19.90;46.80;;;;;;5077841;28;20481;-61
2021/04/06 11:13:19;;;;;;;8.50;1.90;;;20.40;46.30;;;;;;5078140;28;20529;-61
2021/04/06 11:15:46;;;;;;;1.87;1.50;;;20.70;45.80;;;;;;5077616;28;20465;-61
2021/04/06 11:18:15;;;;;;;4.37;2.23;;;21.10;45.20;;;;;;5077469;28;20451;-61
2021/04/06 11:20:44;;;;;;;1.70;1.60;;;21.60;44.80;;;;;;5077616;28;20437;-61
2021/04/06 11:23:15;;;;;;;2.20;1.40;;;22.20;44.00;;;;;;5077599;28;20469;-60
2021/04/06 11:25:43;;;;;;;1.90;1.47;;;23.00;43.20;;;;;;5077444;28;20473;-60
2021/04/06 11:28:10;;;;;;;2.10;1.30;;;24.20;41.90;;;;;;5075600;28;20453;-60
2021/04/06 11:30:36;;;;;;;1.90;1.70;;;24.60;39.90;;;;;;5074197;28;20491;-60
2021/04/06 11:33:04;;;;;;;5.10;1.73;;;23.10;41.90;;;;;;5076616;28;20430;-61
2021/04/06 11:35:31;;;;;;;6.70;2.33;;;21.80;44.00;;;;;;5076552;28;20439;-60
2021/04/06 11:38:00;;;;;;;3.50;2.10;;;20.90;45.50;;;;;;5077086;28;20495;-61
2021/04/06 11:40:27;;;;;;;4.57;1.97;;;20.40;46.60;;;;;;5066901;28;20507;-61
2021/04/06 11:42:53;;;;;;;3.30;2.10;;;21.00;45.80;;;;;;5067884;28;20472;-59
2021/04/06 11:45:22;;;;;;;4.30;2.00;;;20.50;45.90;;;;;;5067106;28;20400;-61
2021/04/06 11:47:49;;;;;;;9.80;2.03;;;22.00;44.50;;;;;;5067088;28;20516;-61
2021/04/06 11:50:16;;;;;;;1.93;1.63;;;21.60;44.20;;;;;;5065566;28;20525;-61
2021/04/06 11:52:43;;;;;;;1.40;1.30;;;25.50;39.70;;;;;;5076436;28;20468;-60
2021/04/06 11:55:12;;;;;;;3.33;1.20;;;29.70;33.10;;;;;;5076471;28;20490;-60
2021/04/06 11:57:43;;;;;;;1.53;1.43;;;30.20;31.70;;;;;;5074292;28;20437;-60
2021/04/06 12:00:11;;;;;;;1.08;0.98;;;31.30;30.00;;;;;;5076131;28;20472;-60
2021/04/06 12:02:38;;;;;;;1.25;1.08;;;32.50;28.60;;;;;;5073532;28;20268;-60
2021/04/06 12:05:06;;;;;;;2.53;1.17;;;33.40;27.40;;;;;;5076511;28;20196;-60
2021/04/06 12:07:32;;;;;;;2.00;1.60;;;28.30;31.80;;;;;;5076413;28;20433;-61
2021/04/06 12:10:01;;;;;;;2.77;1.33;;;29.20;33.50;;;;;;5067411;28;20439;-60
2021/04/06 12:12:29;;;;;;;5.60;1.70;;;28.50;31.80;;;;;;5066635;28;20510;-61
2021/04/06 12:14:55;;;;;;;2.37;1.63;;;27.60;34.30;;;;;;5065308;28;20434;-61
2021/04/06 12:17:22;;;;;;;2.10;1.40;;;24.90;38.10;;;;;;5065909;28;20438;-60
2021/04/06 12:19:49;;;;;;;2.10;1.50;;;26.20;36.00;;;;;;5066547;28;20435;-60
2021/04/06 12:22:16;;;;;;;1.43;1.17;;;28.30;33.50;;;;;;5076116;28;20549;-60
2021/04/06 12:24:43;;;;;;;2.00;1.30;;;32.20;28.70;;;;;;5066043;28;20531;-61
2021/04/06 12:27:10;;;;;;;1.50;1.40;;;27.60;32.90;;;;;;5066705;28;20457;-61
2021/04/06 12:29:38;;;;;;;1.57;1.47;;;28.20;33.30;;;;;;5065339;28;20430;-62
2021/04/06 12:32:05;;;;;;;1.50;1.40;;;30.10;29.60;;;;;;5066114;28;20619;-60
2021/04/06 12:34:32;;;;;;;4.20;1.80;;;29.80;30.00;;;;;;5066658;28;20546;-61
2021/04/06 12:36:59;;;;;;;4.00;1.90;;;26.20;35.00;;;;;;5073539;28;20518;-61
2021/04/06 12:39:47;;;;;;;3.67;2.00;;;24.20;38.80;;;;;;5073766;28;20459;-60
2021/04/06 12:42:13;;;;;;;2.77;2.00;;;22.70;41.30;;;;;;5075682;28;20507;-60
2021/04/06 12:44:41;;;;;;;4.17;1.97;;;21.80;42.80;;;;;;5066851;28;20434;-60
2021/04/06 12:47:08;;;;;;;5.90;1.90;;;21.10;44.00;;;;;;5066127;28;20431;-60
2021/04/06 12:49:35;;;;;;;3.43;1.90;;;20.70;44.80;;;;;;5064309;28;20525;-60
2021/04/06 12:52:02;;;;;;;5.67;1.90;;;20.30;45.40;;;;;;5075358;28;20438;-60
2021/04/06 12:54:29;;;;;;;6.93;2.00;;;20.60;45.00;;;;;;5075076;28;20509;-60
2021/04/06 12:56:56;;;;;;;4.40;1.90;;;20.50;45.10;;;;;;5075537;28;20484;-60
2021/04/06 12:59:22;;;;;;;3.10;2.20;;;22.90;41.90;;;;;;5065744;28;20466;-60